createdAt,value
2022-10-18T00:00:52.531Z,10.50
2022-10-18T00:03:19.813Z,10.40
2022-10-18T00:05:47.362Z,10.30
2022-10-18T00:08:14.174Z,10.30
2022-10-18T00:10:41.054Z,10.30
2022-10-18T00:13:07.719Z,10.30
2022-10-18T00:15:34.775Z,10.20
2022-10-18T00:18:01.407Z,10.20
2022-10-18T00:20:28.105Z,10.20
2022-10-18T00:22:55.064Z,10.10
2022-10-18T00:25:21.776Z,10.10
2022-10-18T00:27:48.718Z,10.10
2022-10-18T00:30:15.478Z,10.00
2022-10-18T00:32:42.477Z,10.00
2022-10-18T00:35:09.271Z,10.00
2022-10-18T00:37:36.035Z,9.90
2022-10-18T00:40:02.763Z,9.90
2022-10-18T00:42:30.830Z,9.90
2022-10-18T00:45:06.269Z,9.90
2022-10-18T00:47:33.010Z,9.90
2022-10-18T00:50:00.915Z,9.80
2022-10-18T00:52:34.547Z,9.80
2022-10-18T00:55:01.311Z,9.70
2022-10-18T00:57:28.257Z,9.70
2022-10-18T00:59:55.082Z,9.70
2022-10-18T01:02:21.748Z,9.60
2022-10-18T01:05:06.312Z,9.60
2022-10-18T01:07:36.111Z,9.60
2022-10-18T01:10:11.772Z,9.50
2022-10-18T01:12:50.719Z,9.50
2022-10-18T01:15:23.553Z,9.50
2022-10-18T01:18:11.264Z,9.50
2022-10-18T01:20:40.970Z,9.40
2022-10-18T01:23:13.405Z,9.40
2022-10-18T01:26:11.953Z,9.40
2022-10-18T01:32:05.083Z,9.30
2022-10-18T01:34:32.882Z,9.30
2022-10-18T01:36:59.625Z,10.00
2022-10-18T01:39:34.041Z,9.20
2022-10-18T01:42:01.705Z,9.20
2022-10-18T01:44:29.473Z,9.10
2022-10-18T01:46:56.312Z,9.10
2022-10-18T01:49:23.051Z,9.10
2022-10-18T01:51:49.722Z,9.10
2022-10-18T01:54:19.241Z,9.10
2022-10-18T01:56:55.101Z,9.10
2022-10-18T01:59:40.617Z,9.10
2022-10-18T02:02:07.314Z,9.10
2022-10-18T02:04:38.201Z,9.10
2022-10-18T02:07:23.709Z,9.30
2022-10-18T02:10:16.743Z,9.10
2022-10-18T02:12:44.171Z,9.10
2022-10-18T02:15:11.982Z,9.10
2022-10-18T02:17:38.729Z,9.10
2022-10-18T02:20:05.748Z,9.00
2022-10-18T02:22:32.841Z,9.00
2022-10-18T02:25:00.054Z,9.00
2022-10-18T02:27:26.788Z,9.00
2022-10-18T02:29:53.612Z,8.90
2022-10-18T02:32:22.132Z,8.90
2022-10-18T02:35:13.685Z,8.80
2022-10-18T02:37:40.709Z,8.90
2022-10-18T02:40:08.138Z,8.80
2022-10-18T02:42:35.883Z,8.80
2022-10-18T02:45:02.806Z,8.80
2022-10-18T02:47:29.816Z,8.70
2022-10-18T02:49:56.720Z,8.70
2022-10-18T02:52:23.405Z,8.70
2022-10-18T02:54:50.028Z,8.60
2022-10-18T02:57:16.976Z,8.60
2022-10-18T02:59:43.815Z,8.60
2022-10-18T03:02:10.626Z,8.60
2022-10-18T03:04:37.389Z,8.60
2022-10-18T03:07:04.136Z,8.50
2022-10-18T03:09:30.979Z,8.50
2022-10-18T03:11:57.690Z,8.50
2022-10-18T03:14:24.535Z,8.40
2022-10-18T03:16:51.399Z,8.40
2022-10-18T03:19:18.120Z,8.40
2022-10-18T03:21:44.920Z,8.40
2022-10-18T03:24:11.599Z,8.40
2022-10-18T03:26:38.257Z,8.40
2022-10-18T03:29:05.028Z,8.50
2022-10-18T03:31:32.119Z,8.40
2022-10-18T03:33:58.885Z,8.40
2022-10-18T03:36:25.676Z,8.30
2022-10-18T03:38:55.302Z,8.30
2022-10-18T03:41:21.977Z,8.30
2022-10-18T03:43:48.751Z,8.30
2022-10-18T03:46:15.637Z,8.30
2022-10-18T03:48:42.634Z,8.50
2022-10-18T03:51:09.344Z,8.20
2022-10-18T03:53:35.959Z,8.20
2022-10-18T03:56:08.533Z,8.20
2022-10-18T03:58:37.927Z,8.20
2022-10-18T04:01:04.575Z,8.10
2022-10-18T04:03:31.416Z,8.20
2022-10-18T04:06:00.546Z,8.10
2022-10-18T04:08:27.445Z,8.10
2022-10-18T04:10:54.197Z,8.10
2022-10-18T04:13:20.883Z,8.10
2022-10-18T04:15:48.709Z,8.10
2022-10-18T04:18:15.566Z,8.10
2022-10-18T04:20:42.322Z,8.10
2022-10-18T04:23:09.227Z,8.10
2022-10-18T04:25:35.998Z,8.10
2022-10-18T04:28:04.756Z,8.10
2022-10-18T04:30:31.517Z,8.00
2022-10-18T04:32:58.189Z,8.00
2022-10-18T04:35:26.133Z,8.00
2022-10-18T04:37:53.071Z,8.00
2022-10-18T04:40:22.771Z,8.00
2022-10-18T04:42:49.443Z,8.00
2022-10-18T04:45:16.136Z,7.90
2022-10-18T04:47:42.975Z,7.90
2022-10-18T04:50:11.990Z,7.90
2022-10-18T04:52:38.738Z,7.90
2022-10-18T04:55:05.762Z,7.90
2022-10-18T04:57:32.696Z,7.80
2022-10-18T04:59:59.698Z,7.80
2022-10-18T05:02:26.700Z,7.80
2022-10-18T05:04:56.411Z,7.70
2022-10-18T05:07:23.152Z,7.70
2022-10-18T05:09:49.838Z,7.70
2022-10-18T05:12:19.600Z,7.70
2022-10-18T05:14:46.345Z,7.70
2022-10-18T05:17:13.076Z,7.70
2022-10-18T05:19:39.838Z,7.60
2022-10-18T05:22:06.655Z,7.70
2022-10-18T05:24:33.457Z,7.60
2022-10-18T05:27:00.294Z,7.60
2022-10-18T05:31:58.897Z,7.60
2022-10-18T05:34:27.651Z,8.10
2022-10-18T05:36:57.688Z,7.60
2022-10-18T05:40:04.553Z,7.60
2022-10-18T05:42:31.670Z,7.60
2022-10-18T05:44:58.634Z,7.50
2022-10-18T05:47:25.569Z,7.60
2022-10-18T05:49:52.339Z,7.50
2022-10-18T05:52:19.352Z,7.50
2022-10-18T05:54:46.296Z,7.50
2022-10-18T05:57:15.621Z,7.50
2022-10-18T05:59:54.121Z,7.40
2022-10-18T06:02:20.899Z,7.50
2022-10-18T06:04:47.699Z,7.40
2022-10-18T06:07:14.762Z,7.50
2022-10-18T06:09:42.030Z,7.40
2022-10-18T06:12:09.141Z,7.40
2022-10-18T06:14:46.354Z,7.50
2022-10-18T06:17:13.295Z,7.40
2022-10-18T06:19:40.019Z,7.40
2022-10-18T06:22:07.105Z,7.40
2022-10-18T06:24:33.756Z,7.40
2022-10-18T06:27:00.702Z,7.40
2022-10-18T06:29:30.248Z,7.40
2022-10-18T06:31:57.033Z,7.40
2022-10-18T06:34:23.767Z,7.40
2022-10-18T06:36:53.795Z,7.40
2022-10-18T06:39:22.945Z,7.40
2022-10-18T06:41:49.630Z,7.40
2022-10-18T06:44:17.451Z,7.20
2022-10-18T06:46:44.809Z,7.40
2022-10-18T06:49:13.139Z,7.40
2022-10-18T06:51:42.466Z,7.30
2022-10-18T06:54:18.512Z,7.40
2022-10-18T06:56:45.736Z,7.40
2022-10-18T06:59:12.437Z,7.40
2022-10-18T07:01:39.409Z,7.40
2022-10-18T07:04:06.452Z,7.40
2022-10-18T07:06:33.193Z,7.50
2022-10-18T07:09:00.305Z,7.60
2022-10-18T07:11:27.189Z,7.60
2022-10-18T07:13:54.738Z,7.60
2022-10-18T07:16:21.487Z,7.70
2022-10-18T07:18:51.696Z,7.70
2022-10-18T07:21:19.333Z,7.80
2022-10-18T07:23:47.038Z,7.80
2022-10-18T07:26:13.662Z,7.80
2022-10-18T07:28:40.513Z,7.80
2022-10-18T07:31:08.051Z,7.80
2022-10-18T07:33:35.335Z,7.90
2022-10-18T07:36:03.261Z,7.90
2022-10-18T07:38:29.962Z,8.50
2022-10-18T07:41:00.125Z,8.00
2022-10-18T07:43:26.966Z,7.80
2022-10-18T07:45:54.154Z,8.20
2022-10-18T07:48:20.951Z,8.30
2022-10-18T07:50:47.635Z,8.40
2022-10-18T07:53:14.598Z,8.60
2022-10-18T07:55:41.740Z,8.80
2022-10-18T07:58:08.451Z,9.10
2022-10-18T08:00:35.193Z,9.40
2022-10-18T08:03:01.853Z,9.60
2022-10-18T08:05:28.632Z,9.90
2022-10-18T08:07:55.339Z,10.20
2022-10-18T08:10:22.435Z,10.50
2022-10-18T08:12:49.222Z,10.80
2022-10-18T08:15:16.278Z,10.90
2022-10-18T08:17:44.528Z,11.10
2022-10-18T08:20:26.131Z,11.20
2022-10-18T08:23:00.154Z,11.20
2022-10-18T08:25:27.820Z,11.20
2022-10-18T08:27:55.101Z,11.30
2022-10-18T08:30:23.399Z,11.30
2022-10-18T08:32:50.232Z,11.40
2022-10-18T08:35:17.388Z,11.40
2022-10-18T08:37:45.376Z,11.60
2022-10-18T08:40:15.323Z,11.80
2022-10-18T08:43:00.840Z,12.10
2022-10-18T08:45:42.071Z,12.30
2022-10-18T08:48:16.303Z,12.60
2022-10-18T08:50:43.273Z,12.70
2022-10-18T08:53:25.506Z,12.80
2022-10-18T08:56:00.031Z,12.80
2022-10-18T08:58:27.266Z,12.90
2022-10-18T09:01:03.147Z,13.30
2022-10-18T09:03:50.137Z,12.90
2022-10-18T09:06:40.417Z,12.90
2022-10-18T09:09:25.609Z,12.90
2022-10-18T09:12:01.883Z,12.90
2022-10-18T09:14:32.076Z,12.80
2022-10-18T09:16:58.719Z,12.80
2022-10-18T09:19:34.577Z,12.80
2022-10-18T09:22:10.144Z,12.80
2022-10-18T09:24:46.726Z,12.80
2022-10-18T09:27:17.327Z,12.90
2022-10-18T09:29:50.217Z,12.90
2022-10-18T09:32:21.776Z,12.90
2022-10-18T09:34:51.484Z,13.00
2022-10-18T09:37:18.716Z,13.00
2022-10-18T09:39:45.575Z,13.10
2022-10-18T09:42:29.434Z,13.10
2022-10-18T09:45:00.455Z,13.20
2022-10-18T09:47:41.204Z,13.30
2022-10-18T09:50:27.854Z,13.30
2022-10-18T09:53:02.023Z,13.40
2022-10-18T09:55:30.780Z,13.40
2022-10-18T09:57:58.397Z,13.40
2022-10-18T10:00:45.616Z,13.50
2022-10-18T10:03:13.201Z,13.50
2022-10-18T10:05:40.106Z,13.60
2022-10-18T10:08:06.821Z,13.60
2022-10-18T10:10:33.926Z,13.70
2022-10-18T10:13:03.698Z,13.70
2022-10-18T10:15:35.270Z,13.70
2022-10-18T10:18:05.867Z,13.80
2022-10-18T10:20:42.292Z,13.80
2022-10-18T10:23:09.971Z,13.90
2022-10-18T10:25:38.109Z,13.90
2022-10-18T10:28:13.480Z,14.00
2022-10-18T10:30:40.119Z,14.00
2022-10-18T10:33:06.925Z,14.10
2022-10-18T10:35:56.093Z,14.20
2022-10-18T10:38:26.272Z,14.20
2022-10-18T10:40:53.037Z,14.30
2022-10-18T10:43:39.209Z,14.40
2022-10-18T10:46:10.833Z,14.50
2022-10-18T10:48:47.998Z,14.60
2022-10-18T10:51:15.057Z,14.70
2022-10-18T10:53:50.872Z,14.90
2022-10-18T10:56:36.103Z,15.20
2022-10-18T10:59:15.757Z,15.90
2022-10-18T11:01:47.650Z,16.70
2022-10-18T11:04:29.135Z,17.60
2022-10-18T11:06:58.066Z,18.40
2022-10-18T11:09:27.007Z,19.30
2022-10-18T11:12:04.204Z,19.90
2022-10-18T11:14:32.672Z,20.50
2022-10-18T11:17:01.996Z,21.00
2022-10-18T11:19:32.775Z,21.50
2022-10-18T11:21:59.803Z,21.90
2022-10-18T11:24:26.662Z,22.30
2022-10-18T11:26:56.746Z,22.60
2022-10-18T11:29:39.531Z,22.90
2022-10-18T11:32:26.425Z,23.20
2022-10-18T11:35:04.470Z,23.60
2022-10-18T11:37:34.526Z,23.90
2022-10-18T11:40:14.681Z,24.20
2022-10-18T11:42:41.428Z,24.20
2022-10-18T11:45:11.027Z,24.20
2022-10-18T11:47:37.716Z,24.20
2022-10-18T11:50:26.256Z,24.30
2022-10-18T11:52:53.026Z,24.40
2022-10-18T11:55:22.754Z,24.40
2022-10-18T11:57:58.588Z,24.50
2022-10-18T12:00:34.216Z,24.60
2022-10-18T12:03:19.553Z,24.60
2022-10-18T12:05:46.499Z,24.70
2022-10-18T12:08:17.058Z,24.70
2022-10-18T12:11:03.456Z,24.80
2022-10-18T12:13:35.147Z,24.80
2022-10-18T12:16:04.901Z,24.90
2022-10-18T12:18:31.698Z,25.00
2022-10-18T12:20:58.508Z,25.00
2022-10-18T12:23:44.334Z,25.10
2022-10-18T12:26:11.278Z,25.20
2022-10-18T12:28:38.412Z,25.30
2022-10-18T12:31:07.014Z,25.30
2022-10-18T12:33:40.960Z,25.30
2022-10-18T12:36:07.633Z,25.40
2022-10-18T12:38:38.092Z,25.40
2022-10-18T12:41:04.832Z,25.40
2022-10-18T12:43:34.105Z,25.40
2022-10-18T12:46:01.081Z,25.40
2022-10-18T12:48:42.509Z,25.40
2022-10-18T12:51:16.422Z,25.40
2022-10-18T12:53:45.157Z,25.50
2022-10-18T12:56:32.451Z,25.60
2022-10-18T12:59:14.689Z,25.70
2022-10-18T13:01:50.429Z,25.70
2022-10-18T13:04:29.667Z,25.60
2022-10-18T13:07:05.340Z,25.60
2022-10-18T13:09:35.415Z,25.50
2022-10-18T13:12:11.455Z,25.40
2022-10-18T13:15:12.773Z,25.50
2022-10-18T13:17:54.605Z,25.50
2022-10-18T13:20:33.469Z,25.40
2022-10-18T13:23:07.779Z,25.30
2022-10-18T13:25:53.530Z,25.20
2022-10-18T13:28:39.280Z,25.00
2022-10-18T13:31:29.116Z,24.90
2022-10-18T13:33:55.826Z,24.60
2022-10-18T13:36:26.258Z,24.50
2022-10-18T13:39:03.273Z,24.30
2022-10-18T13:41:35.535Z,24.00
2022-10-18T13:44:02.412Z,23.70
2022-10-18T13:46:36.530Z,23.30
2022-10-18T13:49:06.010Z,22.90
2022-10-18T13:51:38.762Z,22.70
2022-10-18T13:54:11.642Z,22.60
2022-10-18T13:56:41.762Z,22.70
2022-10-18T13:59:17.602Z,22.90
2022-10-18T14:01:53.166Z,23.00
2022-10-18T14:04:29.368Z,23.30
2022-10-18T14:07:02.054Z,23.50
2022-10-18T14:09:47.215Z,23.60
2022-10-18T14:12:25.315Z,23.80
2022-10-18T14:14:56.888Z,23.90
2022-10-18T14:17:23.571Z,24.00
2022-10-18T14:19:57.414Z,24.10
2022-10-18T14:22:24.157Z,24.00
2022-10-18T14:24:57.627Z,24.00
2022-10-18T14:27:25.266Z,23.80
2022-10-18T14:30:06.760Z,23.50
2022-10-18T14:32:33.601Z,23.30
2022-10-18T14:35:42.253Z,22.80
2022-10-18T14:37:47.971Z,22.50
2022-10-18T14:40:33.889Z,22.10
2022-10-18T14:43:04.695Z,21.70
2022-10-18T14:45:31.433Z,21.50
2022-10-18T14:48:08.321Z,21.40
2022-10-18T14:50:35.053Z,21.60
2022-10-18T14:53:06.006Z,21.80
2022-10-18T14:55:33.167Z,22.00
2022-10-18T14:58:00.000Z,22.30
2022-10-18T15:00:31.893Z,22.50
2022-10-18T15:02:58.784Z,22.70
2022-10-18T15:05:26.201Z,23.00
2022-10-18T15:07:52.975Z,23.20
2022-10-18T15:10:25.391Z,23.20
2022-10-18T15:13:08.616Z,23.10
2022-10-18T15:15:36.260Z,23.00
2022-10-18T15:18:05.160Z,22.70
2022-10-18T15:20:33.029Z,22.40
2022-10-18T15:23:32.312Z,22.20
2022-10-18T15:26:03.453Z,21.90
2022-10-18T15:28:32.026Z,21.60
2022-10-18T15:30:59.105Z,21.30
2022-10-18T15:33:26.078Z,21.00
2022-10-18T15:35:53.603Z,20.70
2022-10-18T15:38:23.346Z,20.40
2022-10-18T15:40:50.140Z,20.10
2022-10-18T15:43:22.952Z,19.80
2022-10-18T15:45:50.442Z,19.50
2022-10-18T15:48:19.387Z,19.30
2022-10-18T15:50:47.757Z,19.10
2022-10-18T15:53:24.027Z,18.90
2022-10-18T15:56:14.437Z,18.60
2022-10-18T15:58:41.269Z,18.40
2022-10-18T16:01:21.586Z,18.20
2022-10-18T16:03:48.486Z,18.00
2022-10-18T16:06:18.090Z,17.80
2022-10-18T16:08:46.762Z,17.60
2022-10-18T16:11:17.502Z,17.50
2022-10-18T16:13:44.435Z,17.40
2022-10-18T16:16:18.593Z,17.20
2022-10-18T16:18:45.519Z,17.10
2022-10-18T16:21:18.778Z,16.90
2022-10-18T16:23:45.735Z,16.80
2022-10-18T16:26:13.013Z,16.70
2022-10-18T16:28:40.066Z,16.60
2022-10-18T16:31:07.340Z,16.50
2022-10-18T16:33:34.239Z,16.40
2022-10-18T16:36:01.169Z,16.30
2022-10-18T16:38:32.705Z,16.20
2022-10-18T16:41:05.321Z,16.10
2022-10-18T16:43:32.909Z,15.90
2022-10-18T16:45:59.803Z,15.80
2022-10-18T16:48:26.791Z,15.70
2022-10-18T16:50:54.211Z,15.60
2022-10-18T16:53:23.522Z,15.60
2022-10-18T16:55:59.927Z,15.50
2022-10-18T16:58:27.347Z,15.40
2022-10-18T17:00:54.185Z,15.30
2022-10-18T17:03:21.095Z,15.20
2022-10-18T17:05:47.702Z,15.10
2022-10-18T17:08:24.766Z,15.10
2022-10-18T17:10:53.034Z,15.00
2022-10-18T17:13:19.970Z,14.90
2022-10-18T17:15:46.921Z,14.80
2022-10-18T17:18:15.594Z,14.80
2022-10-18T17:20:42.303Z,14.80
2022-10-18T17:23:09.420Z,14.70
2022-10-18T17:25:47.251Z,14.60
2022-10-18T17:28:24.877Z,14.60
2022-10-18T17:30:52.271Z,14.50
2022-10-18T17:33:18.990Z,14.50
2022-10-18T17:35:45.671Z,14.40
2022-10-18T17:38:12.459Z,14.40
2022-10-18T17:40:40.321Z,14.40
2022-10-18T17:43:07.279Z,14.30
2022-10-18T17:45:34.125Z,14.30
2022-10-18T17:48:00.883Z,14.20
2022-10-18T17:50:29.154Z,14.20
2022-10-18T17:52:57.027Z,14.10
2022-10-18T17:55:23.848Z,14.10
2022-10-18T17:57:50.690Z,14.00
2022-10-18T18:00:18.404Z,14.00
2022-10-18T18:02:46.821Z,14.00
2022-10-18T18:05:13.625Z,13.90
2022-10-18T18:07:40.724Z,13.90
2022-10-18T18:10:08.465Z,13.80
2022-10-18T18:12:35.635Z,13.80
2022-10-18T18:15:02.654Z,13.70
2022-10-18T18:17:34.410Z,13.70
2022-10-18T18:20:12.637Z,13.70
2022-10-18T18:22:41.756Z,13.60
2022-10-18T18:25:09.732Z,13.60
2022-10-18T18:27:36.569Z,13.60
2022-10-18T18:30:03.518Z,13.60
2022-10-18T18:32:30.432Z,13.50
2022-10-18T18:34:57.245Z,13.50
2022-10-18T18:37:26.270Z,13.40
2022-10-18T18:39:53.146Z,13.50
2022-10-18T18:42:20.187Z,13.40
2022-10-18T18:44:47.047Z,13.50
2022-10-18T18:47:13.858Z,13.40
2022-10-18T18:49:40.908Z,13.40
2022-10-18T18:52:07.659Z,13.30
2022-10-18T18:54:34.510Z,13.30
2022-10-18T18:57:05.285Z,13.30
2022-10-18T18:59:31.981Z,13.30
2022-10-18T19:01:58.797Z,13.20
2022-10-18T19:04:25.545Z,13.20
2022-10-18T19:06:52.518Z,13.10
2022-10-18T19:09:21.668Z,13.20
2022-10-18T19:11:55.259Z,13.10
2022-10-18T19:16:54.449Z,13.00
2022-10-18T19:19:22.473Z,13.00
2022-10-18T19:21:53.150Z,13.00
2022-10-18T19:24:20.307Z,13.00
2022-10-18T19:26:48.010Z,13.00
2022-10-18T19:29:15.779Z,13.00
2022-10-18T19:31:42.588Z,13.00
2022-10-18T19:34:10.607Z,13.00
2022-10-18T19:36:37.845Z,13.00
2022-10-18T19:39:05.580Z,13.00
2022-10-18T19:41:32.357Z,13.10
2022-10-18T19:43:59.118Z,13.00
2022-10-18T19:46:25.999Z,13.10
2022-10-18T19:48:54.314Z,13.10
2022-10-18T19:51:23.017Z,13.00
2022-10-18T19:53:52.137Z,13.10
2022-10-18T19:56:20.268Z,13.10
2022-10-18T19:58:47.129Z,13.00
2022-10-18T20:01:14.055Z,13.00
2022-10-18T20:03:41.409Z,13.00
2022-10-18T20:06:08.372Z,13.00
2022-10-18T20:08:35.450Z,13.00
2022-10-18T20:11:06.236Z,13.00
2022-10-18T20:13:32.945Z,12.90
2022-10-18T20:15:59.666Z,13.00
2022-10-18T20:18:26.541Z,12.90
2022-10-18T20:20:53.500Z,12.90
2022-10-18T20:23:20.202Z,12.90
2022-10-18T20:25:59.603Z,12.90
2022-10-18T20:28:26.754Z,12.90
2022-10-18T20:31:00.633Z,12.90
2022-10-18T20:33:27.417Z,12.90
2022-10-18T20:35:54.770Z,12.80
2022-10-18T20:38:21.630Z,12.80
2022-10-18T20:40:48.590Z,12.80
2022-10-18T20:43:15.309Z,12.80
2022-10-18T20:45:42.044Z,12.80
2022-10-18T20:48:08.800Z,12.80
2022-10-18T20:50:37.063Z,12.80
2022-10-18T20:53:03.723Z,12.80
2022-10-18T20:55:30.441Z,12.80
2022-10-18T20:57:58.115Z,12.70
2022-10-18T21:00:32.012Z,12.80
2022-10-18T21:02:58.957Z,12.70
2022-10-18T21:05:26.107Z,12.70
2022-10-18T21:07:52.862Z,12.70
2022-10-18T21:10:19.868Z,12.70
2022-10-18T21:12:47.411Z,12.60
2022-10-18T21:15:14.354Z,12.60
2022-10-18T21:17:41.171Z,12.60
2022-10-18T21:20:08.463Z,12.50
2022-10-18T21:22:35.393Z,12.60
2022-10-18T21:25:02.313Z,12.50
2022-10-18T21:27:29.243Z,12.50
2022-10-18T21:29:55.937Z,12.50
2022-10-18T21:32:22.928Z,12.50
2022-10-18T21:34:52.280Z,12.50
2022-10-18T21:37:22.267Z,12.50
2022-10-18T21:39:49.415Z,12.50
2022-10-18T21:42:16.256Z,13.40
2022-10-18T21:44:43.523Z,11.80
2022-10-18T21:47:10.646Z,12.50
2022-10-18T21:49:37.473Z,12.50
2022-10-18T21:52:05.410Z,12.50
2022-10-18T21:54:32.097Z,12.50
2022-10-18T21:56:58.847Z,12.50
2022-10-18T21:59:25.766Z,12.50
2022-10-18T22:01:52.520Z,12.40
2022-10-18T22:04:20.404Z,12.40
2022-10-18T22:06:47.270Z,12.40
2022-10-18T22:09:14.115Z,12.40
2022-10-18T22:12:00.904Z,12.50
2022-10-18T22:14:27.832Z,12.40
2022-10-18T22:16:54.561Z,12.40
2022-10-18T22:19:21.429Z,12.40
2022-10-18T22:21:48.258Z,12.40
2022-10-18T22:24:15.060Z,12.40
2022-10-18T22:26:42.011Z,12.40
2022-10-18T22:29:18.455Z,12.30
2022-10-18T22:31:49.086Z,12.30
2022-10-18T22:34:16.692Z,12.20
2022-10-18T22:36:46.025Z,12.30
2022-10-18T22:39:14.373Z,12.20
2022-10-18T22:41:41.364Z,12.20
2022-10-18T22:44:08.537Z,12.20
2022-10-18T22:46:35.467Z,12.20
2022-10-18T22:49:02.202Z,12.10
2022-10-18T22:51:29.062Z,12.10
2022-10-18T22:53:55.785Z,12.10
2022-10-18T22:56:22.632Z,12.10
2022-10-18T22:58:49.319Z,12.10
2022-10-18T23:01:16.902Z,12.10
2022-10-18T23:03:44.007Z,12.10
2022-10-18T23:06:18.281Z,12.10
2022-10-18T23:08:45.112Z,12.00
2022-10-18T23:11:11.932Z,12.00
2022-10-18T23:13:39.632Z,12.00
2022-10-18T23:16:06.963Z,12.00
2022-10-18T23:18:36.748Z,12.00
2022-10-18T23:21:07.256Z,11.90
2022-10-18T23:23:35.560Z,12.00
2022-10-18T23:26:03.268Z,11.90
2022-10-18T23:28:29.999Z,11.90
2022-10-18T23:30:56.720Z,11.90
2022-10-18T23:33:23.776Z,11.90
2022-10-18T23:35:50.555Z,11.90
2022-10-18T23:38:17.315Z,11.80
2022-10-18T23:40:44.278Z,11.80
2022-10-18T23:43:11.024Z,11.80
2022-10-18T23:45:37.809Z,11.70
2022-10-18T23:48:04.678Z,11.70
2022-10-18T23:50:31.359Z,11.70
2022-10-18T23:52:58.047Z,11.70
2022-10-18T23:55:24.831Z,11.70
2022-10-18T23:57:51.635Z,11.60
